Time;durP1;ratioP1;P1;durP2;ratioP2;P2;SDS_P1;SDS_P2;PMS_P1;PMS_P2;Temp;Humidity;BMP_temperature;BMP_pressure;BME280_temperature;BME280_humidity;BME280_pressure;Samples;Min_cycle;Max_cycle;Signal;HPM_P1;HPM_P2
2022/06/06 00:02:08;;;;;;;4.00;0.90;;;21.10;62.70;;;;;;4975320;28;20026;-68
2022/06/06 00:04:34;;;;;;;1.00;0.90;;;21.10;62.70;;;;;;4975405;28;20042;-67
2022/06/06 00:06:59;;;;;;;2.22;1.08;;;21.10;62.80;;;;;;4975334;28;20031;-68
2022/06/06 00:09:25;;;;;;;1.00;0.70;;;21.00;62.80;;;;;;4975239;28;20023;-68
2022/06/06 00:11:51;;;;;;;0.73;0.60;;;21.10;62.80;;;;;;4974094;28;20059;-68
2022/06/06 00:14:17;;;;;;;2.65;1.15;;;21.10;62.80;;;;;;4973803;28;20043;-68
2022/06/06 00:16:43;;;;;;;1.98;0.90;;;21.10;62.80;;;;;;4975180;28;20053;-68
2022/06/06 00:19:10;;;;;;;1.67;0.80;;;21.10;62.90;;;;;;4974819;28;20027;-68
2022/06/06 00:21:35;;;;;;;2.60;1.10;;;21.10;62.80;;;;;;4974988;28;20034;-68
2022/06/06 00:24:01;;;;;;;1.23;1.00;;;21.10;62.80;;;;;;4956545;28;20023;-67
2022/06/06 00:26:27;;;;;;;5.05;1.08;;;21.10;62.90;;;;;;4954548;29;20070;-68
2022/06/06 00:28:53;;;;;;;1.08;0.98;;;21.10;62.90;;;;;;4955325;28;20478;-68
2022/06/06 00:36:47;;;;;;;1.10;1.00;;;21.10;62.90;;;;;;4954781;29;20075;-68
2022/06/06 00:39:15;;;;;;;8.80;1.30;;;21.10;62.90;;;;;;4955042;29;20031;-68
2022/06/06 00:41:51;;;;;;;3.03;1.20;;;21.10;63.00;;;;;;4954239;29;20015;-68
2022/06/06 00:44:27;;;;;;;1.77;1.20;;;21.10;62.90;;;;;;4953953;29;20486;-68
2022/06/06 00:47:16;;;;;;;4.35;1.15;;;21.10;63.00;;;;;;4954002;29;20043;-68
2022/06/06 00:49:53;;;;;;;1.60;1.15;;;21.10;63.00;;;;;;4954194;29;20165;-68
2022/06/06 00:52:27;;;;;;;1.45;1.00;;;21.10;63.00;;;;;;4953717;29;20040;-68
2022/06/06 00:54:54;;;;;;;2.58;1.00;;;21.10;62.90;;;;;;4953872;29;20050;-68
2022/06/06 00:57:22;;;;;;;2.50;0.95;;;21.10;62.90;;;;;;4954003;29;20031;-68
2022/06/06 00:59:50;;;;;;;2.03;1.35;;;21.10;63.00;;;;;;4953885;29;20127;-68
2022/06/06 01:02:15;;;;;;;1.90;1.00;;;21.10;63.00;;;;;;4953829;29;20019;-68
2022/06/06 01:04:41;;;;;;;1.27;1.17;;;21.10;62.90;;;;;;4953698;29;20039;-68
2022/06/06 01:07:09;;;;;;;3.22;1.23;;;21.10;63.00;;;;;;4953478;29;20023;-68
2022/06/06 01:09:34;;;;;;;1.30;1.20;;;21.10;63.00;;;;;;4967859;28;20027;-68
2022/06/06 01:12:07;;;;;;;1.73;1.33;;;21.10;63.00;;;;;;4969985;28;20589;-68
2022/06/06 01:14:35;;;;;;;2.72;1.77;;;21.10;62.60;;;;;;4968566;28;20026;-68
2022/06/06 01:17:31;;;;;;;2.50;1.98;;;21.10;62.10;;;;;;4970207;28;20027;-68
2022/06/06 01:20:18;;;;;;;3.00;2.10;;;21.10;61.90;;;;;;4971353;28;20030;-68
2022/06/06 01:22:49;;;;;;;4.45;2.20;;;21.10;61.60;;;;;;4969896;28;20508;-68
2022/06/06 01:25:36;;;;;;;2.78;1.88;;;21.10;61.90;;;;;;4972958;28;20102;-67
2022/06/06 01:28:02;;;;;;;3.25;1.90;;;21.00;61.70;;;;;;4972786;28;20023;-68
2022/06/06 01:30:30;;;;;;;2.63;2.33;;;21.00;61.50;;;;;;4973811;28;20106;-67
2022/06/06 01:32:56;;;;;;;5.13;2.05;;;21.00;61.10;;;;;;4972657;28;20018;-68
2022/06/06 01:35:29;;;;;;;3.13;2.00;;;21.00;61.30;;;;;;4972538;28;20437;-68
2022/06/06 01:37:55;;;;;;;6.28;1.95;;;21.00;61.40;;;;;;4972541;28;20026;-68
2022/06/06 01:40:21;;;;;;;4.63;2.20;;;21.00;61.50;;;;;;4971956;28;20118;-67
2022/06/06 01:42:56;;;;;;;3.25;1.80;;;21.00;61.70;;;;;;4972627;28;20023;-68
2022/06/06 01:45:43;;;;;;;6.45;1.90;;;21.00;61.80;;;;;;4972475;28;20042;-68
2022/06/06 01:48:16;;;;;;;2.38;1.98;;;21.00;62.90;;;;;;4972453;28;20414;-68
2022/06/06 01:50:43;;;;;;;4.05;2.00;;;21.00;61.90;;;;;;4972341;28;20037;-68
2022/06/06 01:53:10;;;;;;;5.72;1.90;;;21.00;62.00;;;;;;4972390;28;20110;-68
2022/06/06 01:55:39;;;;;;;4.07;1.90;;;21.00;62.00;;;;;;4972368;28;20050;-68
2022/06/06 01:58:20;;;;;;;2.55;1.88;;;21.00;62.10;;;;;;4972411;28;20560;-67
2022/06/06 02:00:46;;;;;;;4.70;1.92;;;21.00;62.20;;;;;;4972634;28;20034;-68
2022/06/06 02:03:11;;;;;;;3.83;2.08;;;21.00;62.20;;;;;;4972422;28;20027;-68
2022/06/06 02:05:37;;;;;;;3.40;1.80;;;21.00;62.20;;;;;;4971956;28;20041;-67
2022/06/06 02:08:03;;;;;;;2.72;1.80;;;21.00;62.40;;;;;;4973288;28;20023;-68
2022/06/06 02:10:29;;;;;;;3.08;1.90;;;21.00;62.40;;;;;;4972341;28;20162;-68
2022/06/06 02:12:54;;;;;;;2.20;2.00;;;21.00;62.50;;;;;;4973431;28;20058;-68
2022/06/06 02:15:24;;;;;;;2.92;2.03;;;21.00;62.50;;;;;;4973223;28;20089;-68
2022/06/06 02:17:50;;;;;;;2.38;2.10;;;21.00;62.50;;;;;;4972302;28;20034;-68
2022/06/06 02:20:17;;;;;;;2.88;2.20;;;21.00;62.60;;;;;;4971733;28;20030;-68
2022/06/06 02:22:43;;;;;;;2.53;2.03;;;21.00;62.70;;;;;;4972230;28;20011;-68
2022/06/06 02:25:09;;;;;;;2.78;2.10;;;21.00;62.70;;;;;;4973063;28;20115;-68
2022/06/06 02:27:35;;;;;;;2.42;1.70;;;21.00;62.70;;;;;;4971309;28;20078;-68
2022/06/06 02:30:01;;;;;;;4.07;1.90;;;21.00;62.70;;;;;;4971285;28;20027;-68
2022/06/06 02:32:27;;;;;;;2.95;1.90;;;21.00;62.70;;;;;;4971965;28;20046;-68
2022/06/06 02:34:52;;;;;;;2.05;1.85;;;21.00;62.70;;;;;;4973032;28;20030;-67
2022/06/06 02:37:18;;;;;;;3.28;1.95;;;21.00;62.70;;;;;;4973211;28;20033;-68
2022/06/06 02:39:44;;;;;;;3.90;2.05;;;21.00;62.80;;;;;;4973253;28;20038;-68
2022/06/06 02:42:10;;;;;;;2.53;1.73;;;21.00;62.90;;;;;;4971704;28;20023;-68
2022/06/06 02:44:35;;;;;;;3.92;1.80;;;21.00;62.90;;;;;;4972356;28;20042;-68
2022/06/06 02:47:01;;;;;;;3.47;2.00;;;21.00;62.90;;;;;;4972900;28;20043;-68
2022/06/06 02:49:26;;;;;;;3.15;1.70;;;21.00;63.00;;;;;;4972945;28;20047;-68
2022/06/06 02:51:52;;;;;;;3.33;1.98;;;21.00;63.10;;;;;;4972776;28;20497;-68
2022/06/06 02:54:18;;;;;;;2.92;1.80;;;21.00;63.10;;;;;;4976392;28;20413;-68
2022/06/06 02:56:43;;;;;;;4.40;1.80;;;21.00;63.10;;;;;;4976616;28;20027;-68
2022/06/06 02:59:09;;;;;;;5.68;1.83;;;21.00;63.20;;;;;;4976566;28;20401;-67
2022/06/06 03:01:35;;;;;;;2.67;1.85;;;21.00;63.10;;;;;;4976394;28;20030;-68
2022/06/06 03:04:01;;;;;;;2.20;1.73;;;21.00;63.20;;;;;;4976238;28;20027;-68
2022/06/06 03:06:50;;;;;;;5.10;1.90;;;21.00;63.20;;;;;;4976272;28;20058;-67
2022/06/06 03:09:24;;;;;;;1.98;1.55;;;21.00;63.20;;;;;;4975044;28;20022;-68
2022/06/06 03:11:59;;;;;;;3.05;1.70;;;21.00;63.30;;;;;;4976600;28;20108;-68
2022/06/06 03:14:33;;;;;;;3.55;1.80;;;21.00;63.20;;;;;;4975069;28;20034;-67
2022/06/06 03:23:25;;;;;;;3.60;1.50;;;21.00;63.30;;;;;;4975952;28;20042;-68
2022/06/06 03:26:28;;;;;;;1.77;1.60;;;21.00;63.40;;;;;;4974744;28;20498;-68
2022/06/06 03:28:53;;;;;;;;;;;21.00;63.40;;;;;;4976390;28;20033;-68
2022/06/06 03:31:34;;;;;;;2.95;1.60;;;20.90;63.30;;;;;;4975996;28;19906;-68
2022/06/06 03:34:22;;;;;;;3.53;1.90;;;21.00;63.50;;;;;;4975833;28;20041;-68
2022/06/06 03:37:20;;;;;;;2.53;1.65;;;21.00;63.40;;;;;;4974996;28;20034;-68
2022/06/06 03:40:13;;;;;;;3.22;1.70;;;21.00;63.50;;;;;;4975616;28;20505;-68
2022/06/06 03:42:39;;;;;;;;;;;21.00;63.50;;;;;;4960391;28;20023;-68
2022/06/06 03:45:27;;;;;;;4.25;1.65;;;21.00;63.50;;;;;;4975665;28;19910;-68
2022/06/06 03:48:30;;;;;;;2.35;1.80;;;20.90;63.50;;;;;;4974407;28;20077;-68
2022/06/06 03:51:02;;;;;;;;;;;20.90;63.50;;;;;;4966596;28;20481;-68
2022/06/06 03:54:01;;;;;;;2.28;1.70;;;20.90;63.50;;;;;;4975499;28;19906;-68
2022/06/06 03:56:50;;;;;;;5.78;2.10;;;20.90;63.60;;;;;;4975302;28;20027;-68
2022/06/06 03:59:16;;;;;;;4.40;1.48;;;20.90;63.70;;;;;;4975562;28;20022;-68
2022/06/06 04:01:42;;;;;;;2.90;1.85;;;20.90;63.70;;;;;;4957965;28;20027;-68
2022/06/06 04:04:08;;;;;;;2.08;1.58;;;20.90;63.70;;;;;;4957888;28;20022;-68
2022/06/06 04:06:34;;;;;;;3.78;1.90;;;20.90;63.70;;;;;;4974390;28;20038;-68
2022/06/06 04:09:00;;;;;;;2.70;1.85;;;20.90;63.70;;;;;;4974338;28;20027;-68
2022/06/06 04:11:29;;;;;;;3.20;1.60;;;21.00;63.70;;;;;;4974128;28;20026;-68
2022/06/06 04:14:10;;;;;;;1.95;1.60;;;21.00;63.80;;;;;;4975300;28;20031;-68
2022/06/06 04:16:45;;;;;;;2.67;1.70;;;21.00;63.80;;;;;;4993273;28;20101;-68
2022/06/06 04:19:39;;;;;;;4.25;1.73;;;21.00;63.70;;;;;;4994643;28;20031;-68
2022/06/06 04:22:48;;;;;;;2.33;1.80;;;21.00;63.70;;;;;;4991814;28;20023;-68
2022/06/06 04:25:46;;;;;;;2.42;1.83;;;21.00;63.70;;;;;;4956728;28;20195;-68
2022/06/06 04:28:14;;;;;;;2.25;1.60;;;21.00;63.70;;;;;;4956829;28;20393;-68
2022/06/06 04:30:59;;;;;;;4.65;1.77;;;21.00;63.80;;;;;;4972580;28;20065;-67
2022/06/06 04:33:37;;;;;;;2.17;1.75;;;21.00;63.70;;;;;;4956648;28;20041;-68
2022/06/06 04:36:06;;;;;;;3.00;1.75;;;20.90;63.70;;;;;;4957851;28;20511;-67
2022/06/06 04:38:32;;;;;;;2.67;1.60;;;21.00;63.80;;;;;;4972590;28;20449;-67
2022/06/06 04:41:38;;;;;;;3.03;1.83;;;21.00;63.70;;;;;;4972495;28;20121;-67
2022/06/06 04:44:39;;;;;;;2.15;1.60;;;21.00;63.80;;;;;;4934054;29;20039;-68
2022/06/06 04:47:25;;;;;;;3.45;1.80;;;21.00;63.80;;;;;;4929472;29;20439;-67
2022/06/06 04:49:51;;;;;;;3.80;1.50;;;21.00;63.80;;;;;;4934184;29;20047;-68
2022/06/06 04:52:16;;;;;;;3.03;1.60;;;21.00;63.70;;;;;;4933811;29;20028;-67
2022/06/06 04:54:42;;;;;;;3.88;1.65;;;21.00;63.80;;;;;;4933827;29;20407;-67
2022/06/06 04:57:09;;;;;;;2.22;1.40;;;21.00;63.80;;;;;;4933865;29;20039;-67
2022/06/06 04:59:34;;;;;;;3.25;1.90;;;21.00;63.80;;;;;;4933622;29;20049;-67
2022/06/06 05:02:02;;;;;;;3.25;1.80;;;21.00;63.80;;;;;;4925567;29;20044;-67
2022/06/06 05:04:28;;;;;;;3.75;1.75;;;21.00;63.80;;;;;;4933522;29;20066;-67
2022/06/06 05:06:57;;;;;;;2.58;1.50;;;21.00;63.80;;;;;;4933671;29;20042;-68
2022/06/06 05:09:38;;;;;;;1.92;1.50;;;21.00;63.80;;;;;;4933726;29;20031;-67
2022/06/06 05:12:10;;;;;;;3.25;1.70;;;21.00;63.80;;;;;;4933556;29;20019;-67
2022/06/06 05:14:54;;;;;;;4.15;1.38;;;21.00;63.90;;;;;;4932620;29;20111;-68
2022/06/06 05:17:56;;;;;;;11.20;1.55;;;21.00;63.80;;;;;;4933621;29;20036;-68
2022/06/06 05:21:08;;;;;;;2.33;1.40;;;21.00;63.80;;;;;;4965404;28;20042;-68
2022/06/06 05:23:40;;;;;;;4.78;1.58;;;21.00;63.80;;;;;;4971670;28;20196;-68
2022/06/06 05:26:23;;;;;;;3.60;1.63;;;21.00;63.90;;;;;;4971768;28;20106;-68
2022/06/06 05:28:55;;;;;;;1.85;1.38;;;21.00;63.90;;;;;;4971585;28;20504;-68
2022/06/06 05:32:08;;;;;;;5.73;1.60;;;21.00;64.00;;;;;;4971678;28;20030;-68
2022/06/06 05:34:45;;;;;;;4.30;1.38;;;20.90;63.90;;;;;;4962990;28;20158;-68
2022/06/06 05:37:21;;;;;;;4.47;1.60;;;20.90;64.00;;;;;;4971628;28;20034;-68
2022/06/06 05:40:04;;;;;;;4.85;1.85;;;20.90;64.00;;;;;;4971735;28;20039;-67
2022/06/06 05:42:40;;;;;;;4.57;1.48;;;20.90;64.00;;;;;;4971206;28;20105;-67
2022/06/06 05:45:14;;;;;;;4.78;1.50;;;20.90;64.00;;;;;;4971406;28;20517;-67
2022/06/06 05:47:43;;;;;;;5.32;1.60;;;20.90;64.00;;;;;;4971247;28;20047;-68
2022/06/06 05:50:15;;;;;;;3.08;1.73;;;20.90;64.00;;;;;;4971417;28;20027;-68
2022/06/06 05:53:01;;;;;;;4.07;1.50;;;20.90;64.00;;;;;;4971414;28;20106;-68
2022/06/06 05:55:41;;;;;;;2.13;1.45;;;20.90;64.00;;;;;;4971303;28;20046;-67
2022/06/06 05:58:25;;;;;;;3.83;1.40;;;20.90;64.10;;;;;;4971363;28;20030;-67
2022/06/06 06:01:09;;;;;;;4.35;1.90;;;20.90;64.00;;;;;;4959356;28;20043;-68
2022/06/06 06:03:53;;;;;;;6.97;1.42;;;21.00;64.10;;;;;;4954170;28;20438;-67
2022/06/06 06:06:45;;;;;;;3.42;1.42;;;20.90;64.10;;;;;;4954219;28;20083;-68
2022/06/06 06:09:55;;;;;;;2.13;1.30;;;20.90;64.20;;;;;;4953257;29;20031;-67
2022/06/06 06:12:46;;;;;;;1.95;1.25;;;20.90;64.10;;;;;;4952703;29;20027;-67
2022/06/06 06:15:34;;;;;;;3.20;1.65;;;20.90;64.20;;;;;;4953082;28;20494;-67
2022/06/06 06:18:01;;;;;;;2.83;1.20;;;20.90;64.20;;;;;;4954094;29;20379;-67
2022/06/06 06:20:33;;;;;;;3.95;1.70;;;20.90;64.30;;;;;;4953005;29;20043;-67
2022/06/06 06:23:04;;;;;;;1.95;1.67;;;20.90;64.30;;;;;;4943141;29;20372;-68
2022/06/06 06:25:32;;;;;;;2.67;1.42;;;20.90;64.20;;;;;;4933739;29;20599;-68
2022/06/06 06:28:02;;;;;;;2.60;1.60;;;20.90;64.30;;;;;;4937483;29;20094;-68
2022/06/06 06:30:29;;;;;;;3.58;1.40;;;20.90;64.30;;;;;;4937244;29;20083;-68
2022/06/06 06:33:18;;;;;;;3.35;1.33;;;20.90;64.30;;;;;;4937422;29;20019;-68
2022/06/06 06:35:58;;;;;;;6.63;1.60;;;20.90;64.30;;;;;;4937433;29;20028;-68
2022/06/06 06:38:28;;;;;;;3.42;1.42;;;20.90;64.30;;;;;;4949855;29;20027;-67
2022/06/06 06:41:17;;;;;;;2.50;1.40;;;20.90;64.50;;;;;;4955184;28;20027;-67
2022/06/06 06:43:43;;;;;;;2.45;1.33;;;20.90;64.30;;;;;;4972793;28;20039;-67
2022/06/06 06:46:19;;;;;;;1.20;1.10;;;20.90;63.20;;;;;;4971224;28;20073;-67
2022/06/06 06:48:46;;;;;;;3.92;1.20;;;20.80;62.50;;;;;;4956637;28;20035;-68
2022/06/06 06:51:43;;;;;;;1.30;1.20;;;20.80;62.60;;;;;;4942734;28;20022;-67
2022/06/06 06:54:27;;;;;;;3.92;1.45;;;20.80;62.80;;;;;;4966989;28;20027;-67
2022/06/06 06:56:59;;;;;;;2.65;1.10;;;20.80;62.60;;;;;;4943453;28;20031;-67
2022/06/06 07:00:03;;;;;;;3.17;1.30;;;20.80;62.60;;;;;;4974486;28;20239;-67
2022/06/06 07:09:15;;;;;;;1.80;1.05;;;20.80;62.30;;;;;;4916784;29;20549;-67
2022/06/06 07:11:59;;;;;;;1.60;1.02;;;20.80;62.40;;;;;;4916565;29;20028;-67
2022/06/06 07:14:43;;;;;;;1.95;1.25;;;20.80;62.30;;;;;;4919376;29;20043;-67
2022/06/06 07:17:09;;;;;;;2.58;1.20;;;20.80;62.30;;;;;;4935592;29;20039;-67
2022/06/06 07:19:40;;;;;;;2.03;1.17;;;20.70;62.50;;;;;;4935398;29;20031;-67
2022/06/06 07:22:06;;;;;;;1.30;1.20;;;20.80;62.40;;;;;;4932844;29;20043;-67
2022/06/06 07:24:32;;;;;;;3.05;1.35;;;20.70;62.20;;;;;;4900188;29;20060;-67
2022/06/06 07:26:59;;;;;;;2.53;1.10;;;20.80;62.30;;;;;;4916718;29;20028;-67
2022/06/06 07:29:25;;;;;;;1.92;1.15;;;20.80;62.20;;;;;;4916988;29;20250;-67
2022/06/06 07:32:18;;;;;;;2.97;1.20;;;20.70;62.30;;;;;;4916881;29;20116;-67
2022/06/06 07:35:04;;;;;;;2.67;1.10;;;20.80;62.50;;;;;;4916792;29;20032;-67
2022/06/06 07:37:41;;;;;;;2.00;1.17;;;20.70;62.20;;;;;;4915971;29;20502;-67
2022/06/06 07:40:18;;;;;;;2.55;1.00;;;20.70;62.40;;;;;;4916759;29;20043;-67
2022/06/06 07:43:02;;;;;;;4.05;1.30;;;20.70;62.20;;;;;;4944681;29;20039;-67
2022/06/06 07:45:34;;;;;;;2.03;1.10;;;20.70;62.30;;;;;;4957101;29;20042;-67
2022/06/06 07:48:03;;;;;;;1.60;1.20;;;20.70;62.20;;;;;;4974431;28;20038;-67
2022/06/06 07:50:51;;;;;;;3.20;0.90;;;20.70;62.50;;;;;;4976254;28;20417;-67
2022/06/06 07:53:23;;;;;;;2.10;1.25;;;20.70;62.30;;;;;;4974842;28;20035;-67
2022/06/06 07:55:49;;;;;;;2.05;1.15;;;20.80;62.30;;;;;;4974953;28;20031;-67
2022/06/06 07:58:24;;;;;;;1.50;1.10;;;20.70;62.30;;;;;;4974879;28;20027;-67
2022/06/06 08:01:26;;;;;;;1.40;0.90;;;20.70;62.30;;;;;;4974964;28;20062;-67
2022/06/06 08:04:31;;;;;;;1.20;1.00;;;20.70;62.30;;;;;;4974988;28;20023;-67
2022/06/06 08:07:05;;;;;;;1.23;1.10;;;20.70;62.30;;;;;;4935212;29;20032;-67
2022/06/06 08:09:34;;;;;;;1.92;1.05;;;20.70;62.30;;;;;;4935128;29;20040;-67
2022/06/06 08:12:05;;;;;;;2.03;1.08;;;20.70;62.30;;;;;;4935229;29;20057;-67
2022/06/06 08:14:47;;;;;;;1.67;1.10;;;20.70;62.30;;;;;;4938476;29;20094;-67
2022/06/06 08:17:35;;;;;;;2.72;1.08;;;20.70;62.40;;;;;;4954464;29;20047;-67
2022/06/06 08:20:09;;;;;;;1.35;1.00;;;20.70;62.40;;;;;;4938363;29;20027;-67
2022/06/06 08:22:36;;;;;;;1.02;0.80;;;20.70;62.50;;;;;;4934734;29;20040;-67
2022/06/06 08:25:03;;;;;;;2.13;1.10;;;20.70;62.30;;;;;;4934832;29;20060;-67
2022/06/06 08:27:29;;;;;;;1.20;1.10;;;20.70;62.30;;;;;;4935072;29;20032;-67
2022/06/06 08:29:54;;;;;;;1.92;1.10;;;20.70;62.40;;;;;;4935113;29;20500;-67
2022/06/06 08:32:21;;;;;;;1.35;1.13;;;20.70;62.50;;;;;;4934807;29;20030;-67
2022/06/06 08:34:48;;;;;;;1.70;1.10;;;20.70;62.50;;;;;;4934813;29;20122;-67
2022/06/06 08:37:25;;;;;;;3.15;0.93;;;20.70;62.50;;;;;;4934688;29;20028;-67
2022/06/06 08:39:57;;;;;;;3.17;1.23;;;20.70;62.50;;;;;;4936949;28;20611;-67
2022/06/06 08:42:39;;;;;;;2.88;1.02;;;20.70;62.60;;;;;;4975253;28;20023;-67
2022/06/06 08:45:25;;;;;;;1.70;1.00;;;20.70;62.50;;;;;;4973870;28;20030;-67
2022/06/06 08:48:02;;;;;;;1.42;0.90;;;20.70;62.60;;;;;;4974766;28;20046;-67
2022/06/06 08:50:47;;;;;;;0.93;0.63;;;20.70;62.60;;;;;;4974222;28;20034;-67
2022/06/06 08:53:38;;;;;;;4.93;1.00;;;20.70;62.60;;;;;;4974244;28;20509;-67
2022/06/06 08:56:22;;;;;;;2.22;0.90;;;20.70;62.50;;;;;;4973986;28;20038;-67
2022/06/06 08:59:33;;;;;;;1.35;0.70;;;20.70;62.50;;;;;;4973506;28;20035;-67
2022/06/06 09:02:26;;;;;;;1.92;1.10;;;20.70;62.60;;;;;;4974355;28;20053;-67
2022/06/06 09:05:16;;;;;;;2.80;1.23;;;20.70;62.70;;;;;;4974823;28;20073;-67
2022/06/06 09:07:45;;;;;;;2.33;0.98;;;20.70;62.70;;;;;;4974833;28;20173;-67
2022/06/06 09:10:38;;;;;;;1.50;0.80;;;20.70;62.60;;;;;;4974754;28;20030;-67
2022/06/06 09:13:13;;;;;;;3.33;1.10;;;20.70;62.70;;;;;;4974604;28;20038;-67
2022/06/06 09:16:07;;;;;;;2.22;1.02;;;20.70;62.70;;;;;;4974423;28;20077;-67
2022/06/06 09:18:41;;;;;;;1.50;0.90;;;20.70;62.70;;;;;;4974672;28;20030;-67
2022/06/06 09:21:11;;;;;;;5.10;0.70;;;20.70;62.70;;;;;;4974456;28;20031;-67
2022/06/06 09:23:57;;;;;;;2.83;1.00;;;20.70;62.60;;;;;;4974382;28;20115;-67
2022/06/06 09:26:28;;;;;;;1.60;1.10;;;20.70;62.70;;;;;;4973174;28;20030;-67
2022/06/06 09:29:11;;;;;;;1.58;0.88;;;20.70;62.60;;;;;;4957737;28;20023;-67
2022/06/06 09:31:36;;;;;;;2.15;0.75;;;20.70;62.70;;;;;;4973055;28;20149;-67
2022/06/06 09:34:23;;;;;;;0.73;0.73;;;20.70;62.70;;;;;;4974545;28;20101;-67
2022/06/06 09:37:04;;;;;;;3.55;0.93;;;20.70;62.60;;;;;;4974419;28;20050;-67
2022/06/06 09:39:42;;;;;;;1.00;0.70;;;20.70;62.70;;;;;;4974432;28;20031;-67
2022/06/06 09:42:17;;;;;;;3.58;1.20;;;20.70;62.70;;;;;;4974436;28;20026;-67
2022/06/06 09:45:02;;;;;;;1.15;0.90;;;20.70;62.80;;;;;;4972861;28;20059;-67
2022/06/06 09:48:05;;;;;;;0.88;0.80;;;20.70;62.70;;;;;;4974244;28;20039;-67
2022/06/06 09:50:36;;;;;;;1.75;1.05;;;20.70;62.70;;;;;;4973928;28;20793;-66
2022/06/06 09:53:32;;;;;;;1.00;0.90;;;20.70;62.80;;;;;;4974141;28;20477;-67
2022/06/06 09:59:25;;;;;;;1.60;0.95;;;20.70;62.90;;;;;;4973057;28;20429;-67
2022/06/06 10:02:21;;;;;;;1.33;0.77;;;20.70;62.80;;;;;;4975288;28;20031;-67
2022/06/06 10:05:35;;;;;;;3.17;1.30;;;20.70;62.70;;;;;;4977602;28;20062;-67
2022/06/06 10:08:07;;;;;;;1.77;0.90;;;20.70;62.80;;;;;;4976996;28;20393;-67
2022/06/06 10:11:02;;;;;;;;;;;20.70;62.80;;;;;;4977237;28;20453;-67
2022/06/06 10:13:43;;;;;;;2.33;0.80;;;20.70;62.80;;;;;;4968757;28;19906;-67
2022/06/06 10:16:46;;;;;;;1.30;0.80;;;20.70;62.80;;;;;;4977627;28;20042;-67
2022/06/06 10:19:34;;;;;;;6.30;0.80;;;20.70;62.80;;;;;;4977594;28;20027;-67
2022/06/06 10:22:14;;;;;;;1.45;0.70;;;20.70;62.80;;;;;;4975572;28;20022;-67
2022/06/06 10:25:00;;;;;;;1.95;0.77;;;20.70;62.90;;;;;;4957327;29;20023;-67
2022/06/06 10:27:38;;;;;;;1.30;0.75;;;20.70;62.90;;;;;;4957327;29;20030;-67
2022/06/06 10:30:36;;;;;;;1.63;0.73;;;20.70;62.90;;;;;;4958611;29;20082;-69
2022/06/06 10:33:17;;;;;;;1.95;0.70;;;20.70;63.00;;;;;;4956633;29;20023;-68
2022/06/06 10:35:45;;;;;;;1.55;0.85;;;20.70;63.00;;;;;;4958361;29;20106;-68
2022/06/06 10:38:29;;;;;;;1.85;0.82;;;20.70;62.90;;;;;;4956919;29;20031;-67
2022/06/06 10:41:19;;;;;;;0.77;0.73;;;20.70;62.90;;;;;;4958270;29;20031;-67
2022/06/06 10:44:00;;;;;;;1.38;0.85;;;20.70;62.70;;;;;;4957910;29;20027;-67
2022/06/06 10:46:40;;;;;;;3.25;0.70;;;20.70;62.70;;;;;;4957757;29;20119;-67
2022/06/06 10:49:09;;;;;;;0.95;0.73;;;20.70;62.60;;;;;;4956607;29;20102;-67
2022/06/06 10:52:02;;;;;;;1.00;0.70;;;20.70;62.60;;;;;;4957040;29;20023;-68
2022/06/06 10:54:46;;;;;;;;;;;20.70;62.60;;;;;;4958197;29;20028;-69
2022/06/06 10:57:56;;;;;;;0.90;0.82;;;20.70;62.50;;;;;;4957722;29;19906;-68
2022/06/06 11:00:48;;;;;;;0.52;0.52;;;20.70;62.60;;;;;;4955548;29;20044;-68
2022/06/06 11:03:50;;;;;;;2.37;0.70;;;20.70;62.60;;;;;;4955746;29;20046;-68
2022/06/06 11:06:19;;;;;;;2.15;0.85;;;20.70;62.60;;;;;;4955586;29;20058;-68
2022/06/06 11:08:57;;;;;;;0.90;0.60;;;20.70;62.50;;;;;;4961987;28;20026;-68
2022/06/06 11:11:49;;;;;;;0.80;0.65;;;20.70;62.50;;;;;;4973449;28;20039;-69
2022/06/06 11:14:30;;;;;;;0.95;0.70;;;20.70;62.50;;;;;;4972908;28;20030;-69
2022/06/06 11:17:13;;;;;;;9.30;0.93;;;20.70;62.50;;;;;;4956932;28;20138;-69
2022/06/06 11:19:57;;;;;;;1.17;0.52;;;20.70;62.40;;;;;;4973191;28;20069;-69
2022/06/06 11:22:30;;;;;;;1.67;0.80;;;20.70;62.30;;;;;;4973243;28;20038;-68
2022/06/06 11:25:13;;;;;;;0.98;0.63;;;20.70;62.30;;;;;;4957285;28;20064;-68
2022/06/06 11:27:48;;;;;;;0.95;0.65;;;20.70;62.30;;;;;;4960131;28;20110;-68
2022/06/06 11:30:22;;;;;;;0.98;0.70;;;20.70;62.20;;;;;;4974512;28;20089;-69
2022/06/06 11:32:57;;;;;;;1.45;0.60;;;20.70;62.20;;;;;;4958393;28;20035;-69
2022/06/06 11:35:28;;;;;;;0.98;0.70;;;20.70;62.20;;;;;;4974349;28;20031;-69
2022/06/06 11:38:03;;;;;;;0.63;0.50;;;20.70;62.10;;;;;;4976499;28;20039;-69
2022/06/06 11:40:41;;;;;;;0.63;0.60;;;20.70;62.10;;;;;;4975168;28;20037;-68
2022/06/06 11:43:12;;;;;;;1.50;0.70;;;20.70;62.10;;;;;;4976385;28;20058;-69
2022/06/06 11:45:41;;;;;;;0.60;0.60;;;20.70;62.10;;;;;;4974694;28;20118;-69
2022/06/06 11:48:31;;;;;;;0.55;0.43;;;20.70;62.10;;;;;;4976349;28;20127;-69
2022/06/06 11:51:18;;;;;;;0.90;0.50;;;20.70;62.10;;;;;;4976248;28;20053;-68
2022/06/06 11:53:56;;;;;;;1.67;0.45;;;20.70;62.10;;;;;;4976039;28;20018;-68
2022/06/06 11:56:41;;;;;;;0.98;0.63;;;20.70;62.10;;;;;;4974907;28;20027;-68
2022/06/06 11:59:25;;;;;;;1.27;0.50;;;20.70;62.10;;;;;;4976090;28;20027;-68
2022/06/06 12:02:00;;;;;;;0.85;0.70;;;20.70;62.10;;;;;;4976256;28;20027;-68
2022/06/06 12:04:35;;;;;;;0.63;0.50;;;20.70;62.20;;;;;;4974712;28;20030;-68
2022/06/06 12:07:12;;;;;;;1.55;0.47;;;20.70;62.20;;;;;;4975927;28;20478;-69
2022/06/06 12:09:37;;;;;;;1.23;0.50;;;20.70;62.10;;;;;;4975695;28;20507;-68
2022/06/06 12:12:12;;;;;;;0.60;0.50;;;20.70;62.10;;;;;;4975879;28;20102;-69
2022/06/06 12:15:15;;;;;;;0.73;0.50;;;20.70;62.10;;;;;;4975578;28;20117;-68
2022/06/06 12:18:09;;;;;;;1.58;0.40;;;20.70;62.10;;;;;;4975847;28;20035;-68
2022/06/06 12:20:59;;;;;;;2.67;0.65;;;20.70;62.20;;;;;;4973637;28;20023;-67
2022/06/06 12:23:45;;;;;;;0.93;0.40;;;20.70;62.20;;;;;;4969906;28;20566;-67
2022/06/06 12:26:41;;;;;;;0.50;0.50;;;20.70;62.20;;;;;;4975529;28;20054;-68
2022/06/06 12:29:26;;;;;;;0.85;0.70;;;20.70;62.10;;;;;;4974570;28;20521;-68
2022/06/06 12:31:56;;;;;;;3.83;0.40;;;20.60;62.00;;;;;;4974278;28;20029;-68
2022/06/06 12:34:44;;;;;;;0.80;0.38;;;20.60;62.10;;;;;;4973187;28;20544;-70
2022/06/06 12:37:34;;;;;;;0.47;0.30;;;20.50;62.30;;;;;;4968876;28;20027;-70
2022/06/06 12:40:37;;;;;;;2.00;0.43;;;20.60;62.70;;;;;;4974856;28;20478;-70
2022/06/06 12:43:24;;;;;;;1.77;0.40;;;20.60;63.00;;;;;;4974154;28;20038;-70
2022/06/06 12:46:11;;;;;;;0.68;0.40;;;20.60;63.00;;;;;;4974247;28;20031;-70
2022/06/06 12:49:04;;;;;;;2.00;0.60;;;20.60;63.00;;;;;;4974765;28;20035;-70
2022/06/06 12:51:35;;;;;;;0.43;0.43;;;20.50;63.00;;;;;;4974265;28;20498;-70
2022/06/06 12:54:30;;;;;;;0.40;0.40;;;20.50;62.90;;;;;;4974596;28;20458;-69
2022/06/06 12:56:57;;;;;;;3.55;0.47;;;20.60;63.10;;;;;;4974169;28;20114;-71
2022/06/06 12:59:41;;;;;;;0.80;0.40;;;20.60;63.10;;;;;;4973335;28;20023;-71
2022/06/06 13:02:39;;;;;;;0.30;0.30;;;20.50;63.00;;;;;;4973248;28;20054;-71
2022/06/06 13:05:11;;;;;;;0.55;0.30;;;20.50;63.20;;;;;;4973142;28;20070;-71
2022/06/06 13:07:40;;;;;;;;;;;20.50;63.70;;;;;;4974580;28;20035;-71
2022/06/06 13:10:27;;;;;;;0.43;0.20;;;20.40;63.90;;;;;;4974203;28;19906;-71
2022/06/06 13:13:14;;;;;;;1.67;0.20;;;20.40;64.00;;;;;;4974046;28;20054;-71
2022/06/06 13:15:42;;;;;;;0.25;0.22;;;20.40;64.00;;;;;;4974132;28;20486;-71
2022/06/06 13:18:43;;;;;;;0.45;0.30;;;20.40;64.00;;;;;;4972820;28;20520;-71
2022/06/06 13:21:17;;;;;;;0.32;0.28;;;20.40;64.00;;;;;;4972808;28;20027;-71
2022/06/06 13:24:15;;;;;;;0.85;0.20;;;20.40;64.00;;;;;;4972833;28;20058;-70
2022/06/06 13:26:55;;;;;;;6.85;1.10;;;20.40;64.20;;;;;;4973676;28;20042;-71
2022/06/06 13:29:32;;;;;;;10.70;2.00;;;20.40;64.40;;;;;;4957140;28;20044;-71
2022/06/06 13:32:05;;;;;;;6.65;1.00;;;20.40;65.00;;;;;;4972812;28;20033;-71
2022/06/06 13:34:43;;;;;;;8.70;1.38;;;20.40;64.90;;;;;;4972810;28;20106;-71
2022/06/06 13:37:58;;;;;;;12.05;1.00;;;20.40;65.10;;;;;;4972262;28;20034;-71
2022/06/06 13:40:32;;;;;;;8.55;1.10;;;20.40;64.90;;;;;;4933060;29;20036;-71
2022/06/06 13:43:23;;;;;;;5.75;0.80;;;20.40;64.90;;;;;;4933063;29;20031;-71
2022/06/06 13:46:04;;;;;;;3.58;1.00;;;20.40;65.00;;;;;;4902880;29;20024;-71
2022/06/06 13:48:53;;;;;;;2.53;0.70;;;20.30;65.00;;;;;;4903462;29;20120;-71
2022/06/06 13:51:30;;;;;;;2.67;0.43;;;20.40;65.20;;;;;;4933200;29;20491;-71
2022/06/06 13:54:03;;;;;;;4.78;1.02;;;20.30;65.10;;;;;;4933013;29;20414;-71
2022/06/06 13:57:03;;;;;;;3.10;0.60;;;20.30;65.00;;;;;;4932816;29;20059;-71
2022/06/06 13:59:42;;;;;;;1.08;0.40;;;20.30;65.00;;;;;;4930632;29;20032;-71
2022/06/06 14:02:20;;;;;;;2.53;0.40;;;20.30;64.80;;;;;;4931127;29;20115;-71
2022/06/06 14:05:09;;;;;;;4.25;0.60;;;20.30;64.70;;;;;;4931777;29;20044;-71
2022/06/06 14:08:02;;;;;;;3.75;0.57;;;20.30;64.90;;;;;;4931523;29;20175;-71